sensor_id;sensor_type;location;lat;lon;timestamp;temperature;humidity
12720;DHT22;6424;48.520;11.228;2023-07-22T00:01:35;14.10;99.90
12720;DHT22;6424;48.520;11.228;2023-07-22T00:04:17;14.00;99.90
12720;DHT22;6424;48.520;11.228;2023-07-22T00:06:43;14.00;99.90
12720;DHT22;6424;48.520;11.228;2023-07-22T00:09:23;14.00;99.90
12720;DHT22;6424;48.520;11.228;2023-07-22T00:12:04;14.00;99.90
12720;DHT22;6424;48.520;11.228;2023-07-22T00:14:45;13.90;99.90
12720;DHT22;6424;48.520;11.228;2023-07-22T00:17:26;13.90;99.90
12720;DHT22;6424;48.520;11.228;2023-07-22T00:20:07;13.90;99.90
12720;DHT22;6424;48.520;11.228;2023-07-22T00:22:52;13.90;99.90
12720;DHT22;6424;48.520;11.228;2023-07-22T00:25:33;13.80;99.90
12720;DHT22;6424;48.520;11.228;2023-07-22T00:28:14;13.80;99.90
12720;DHT22;6424;48.520;11.228;2023-07-22T00:30:55;13.80;99.90
12720;DHT22;6424;48.520;11.228;2023-07-22T00:33:37;13.80;99.90
12720;DHT22;6424;48.520;11.228;2023-07-22T00:36:19;13.70;99.90
12720;DHT22;6424;48.520;11.228;2023-07-22T00:38:44;13.70;99.90
12720;DHT22;6424;48.520;11.228;2023-07-22T00:41:25;13.70;99.90
12720;DHT22;6424;48.520;11.228;2023-07-22T00:44:06;13.70;99.90
12720;DHT22;6424;48.520;11.228;2023-07-22T00:46:47;13.70;99.90
12720;DHT22;6424;48.520;11.228;2023-07-22T00:49:14;13.70;99.90
12720;DHT22;6424;48.520;11.228;2023-07-22T00:52:01;13.70;99.90
12720;DHT22;6424;48.520;11.228;2023-07-22T00:54:43;13.70;99.90
12720;DHT22;6424;48.520;11.228;2023-07-22T00:57:24;13.60;99.90
12720;DHT22;6424;48.520;11.228;2023-07-22T01:00:06;13.60;99.90
12720;DHT22;6424;48.520;11.228;2023-07-22T01:02:47;13.60;99.90
12720;DHT22;6424;48.520;11.228;2023-07-22T01:05:28;13.50;99.90
12720;DHT22;6424;48.520;11.228;2023-07-22T01:08:09;13.60;99.90
12720;DHT22;6424;48.520;11.228;2023-07-22T01:10:50;13.50;99.90
12720;DHT22;6424;48.520;11.228;2023-07-22T01:13:31;13.50;99.90
12720;DHT22;6424;48.520;11.228;2023-07-22T01:16:12;13.50;99.90
12720;DHT22;6424;48.520;11.228;2023-07-22T01:18:54;13.50;99.90
12720;DHT22;6424;48.520;11.228;2023-07-22T01:21:36;13.50;99.90
12720;DHT22;6424;48.520;11.228;2023-07-22T01:24:17;13.50;99.90
12720;DHT22;6424;48.520;11.228;2023-07-22T01:26:44;13.50;99.90
12720;DHT22;6424;48.520;11.228;2023-07-22T01:29:25;13.50;99.90
12720;DHT22;6424;48.520;11.228;2023-07-22T01:32:06;13.50;99.90
12720;DHT22;6424;48.520;11.228;2023-07-22T01:34:47;13.50;99.90
12720;DHT22;6424;48.520;11.228;2023-07-22T01:37:12;13.60;99.90
12720;DHT22;6424;48.520;11.228;2023-07-22T01:39:53;13.60;99.90
12720;DHT22;6424;48.520;11.228;2023-07-22T01:42:46;13.60;99.90
12720;DHT22;6424;48.520;11.228;2023-07-22T01:45:27;13.60;99.90
12720;DHT22;6424;48.520;11.228;2023-07-22T01:48:08;13.70;99.90
12720;DHT22;6424;48.520;11.228;2023-07-22T01:50:49;13.60;99.90
12720;DHT22;6424;48.520;11.228;2023-07-22T01:53:29;13.60;99.90
12720;DHT22;6424;48.520;11.228;2023-07-22T01:56:10;13.70;99.90
12720;DHT22;6424;48.520;11.228;2023-07-22T01:58:51;13.60;99.90
12720;DHT22;6424;48.520;11.228;2023-07-22T02:01:32;13.60;99.90
12720;DHT22;6424;48.520;11.228;2023-07-22T02:03:58;13.60;99.90
12720;DHT22;6424;48.520;11.228;2023-07-22T02:06:38;13.60;99.90
12720;DHT22;6424;48.520;11.228;2023-07-22T02:09:19;13.60;99.90
12720;DHT22;6424;48.520;11.228;2023-07-22T02:12:00;13.60;99.90
12720;DHT22;6424;48.520;11.228;2023-07-22T02:14:41;13.70;99.90
12720;DHT22;6424;48.520;11.228;2023-07-22T02:17:22;13.70;99.90
12720;DHT22;6424;48.520;11.228;2023-07-22T02:20:04;13.70;99.90
12720;DHT22;6424;48.520;11.228;2023-07-22T02:22:46;13.70;99.90
12720;DHT22;6424;48.520;11.228;2023-07-22T02:25:26;13.70;99.90
12720;DHT22;6424;48.520;11.228;2023-07-22T02:28:07;13.60;99.90
12720;DHT22;6424;48.520;11.228;2023-07-22T02:30:49;13.60;99.90
12720;DHT22;6424;48.520;11.228;2023-07-22T02:33:32;13.60;99.90
12720;DHT22;6424;48.520;11.228;2023-07-22T02:35:58;13.60;99.90
12720;DHT22;6424;48.520;11.228;2023-07-22T02:38:39;13.50;99.90
12720;DHT22;6424;48.520;11.228;2023-07-22T02:41:19;13.50;99.90
12720;DHT22;6424;48.520;11.228;2023-07-22T02:44:02;13.40;99.90
12720;DHT22;6424;48.520;11.228;2023-07-22T02:46:44;13.40;99.90
12720;DHT22;6424;48.520;11.228;2023-07-22T02:49:24;13.40;99.90
12720;DHT22;6424;48.520;11.228;2023-07-22T02:52:05;13.30;99.90
12720;DHT22;6424;48.520;11.228;2023-07-22T02:57:45;13.20;99.90
12720;DHT22;6424;48.520;11.228;2023-07-22T03:00:26;13.20;99.90
12720;DHT22;6424;48.520;11.228;2023-07-22T03:03:08;13.10;99.90
12720;DHT22;6424;48.520;11.228;2023-07-22T03:05:48;13.10;99.90
12720;DHT22;6424;48.520;11.228;2023-07-22T03:08:29;13.10;99.90
12720;DHT22;6424;48.520;11.228;2023-07-22T03:10:55;13.00;99.90
12720;DHT22;6424;48.520;11.228;2023-07-22T03:13:36;13.00;99.90
12720;DHT22;6424;48.520;11.228;2023-07-22T03:16:17;13.00;99.90
12720;DHT22;6424;48.520;11.228;2023-07-22T03:18:58;13.00;99.90
12720;DHT22;6424;48.520;11.228;2023-07-22T03:21:38;12.90;99.90
12720;DHT22;6424;48.520;11.228;2023-07-22T03:24:19;12.90;99.90
12720;DHT22;6424;48.520;11.228;2023-07-22T03:27:00;13.00;99.90
12720;DHT22;6424;48.520;11.228;2023-07-22T03:29:41;13.00;99.90
12720;DHT22;6424;48.520;11.228;2023-07-22T03:32:22;13.00;99.90
12720;DHT22;6424;48.520;11.228;2023-07-22T03:35:03;13.00;99.90
12720;DHT22;6424;48.520;11.228;2023-07-22T03:37:44;13.10;99.90
12720;DHT22;6424;48.520;11.228;2023-07-22T03:40:25;13.10;99.90
12720;DHT22;6424;48.520;11.228;2023-07-22T03:43:10;13.10;99.90
12720;DHT22;6424;48.520;11.228;2023-07-22T03:45:51;13.20;99.90
12720;DHT22;6424;48.520;11.228;2023-07-22T03:48:32;13.20;99.90
12720;DHT22;6424;48.520;11.228;2023-07-22T03:50:57;13.20;99.90
12720;DHT22;6424;48.520;11.228;2023-07-22T03:53:23;13.20;99.90
12720;DHT22;6424;48.520;11.228;2023-07-22T03:56:04;13.20;99.90
12720;DHT22;6424;48.520;11.228;2023-07-22T03:58:45;13.30;99.90
12720;DHT22;6424;48.520;11.228;2023-07-22T04:01:25;13.30;99.90
12720;DHT22;6424;48.520;11.228;2023-07-22T04:04:06;13.30;99.90
12720;DHT22;6424;48.520;11.228;2023-07-22T04:06:47;13.30;99.90
12720;DHT22;6424;48.520;11.228;2023-07-22T04:09:27;13.40;99.90
12720;DHT22;6424;48.520;11.228;2023-07-22T04:12:08;13.40;99.90
12720;DHT22;6424;48.520;11.228;2023-07-22T04:14:49;13.50;99.90
12720;DHT22;6424;48.520;11.228;2023-07-22T04:17:30;13.60;99.90
12720;DHT22;6424;48.520;11.228;2023-07-22T04:22:52;14.00;99.90
12720;DHT22;6424;48.520;11.228;2023-07-22T04:25:32;14.60;99.90
12720;DHT22;6424;48.520;11.228;2023-07-22T04:28:14;15.40;99.90
12720;DHT22;6424;48.520;11.228;2023-07-22T04:30:56;16.30;99.90
12720;DHT22;6424;48.520;11.228;2023-07-22T04:33:38;17.10;99.90
12720;DHT22;6424;48.520;11.228;2023-07-22T04:36:19;17.90;99.90
12720;DHT22;6424;48.520;11.228;2023-07-22T04:39:00;18.60;99.90
12720;DHT22;6424;48.520;11.228;2023-07-22T04:41:26;19.40;99.90
12720;DHT22;6424;48.520;11.228;2023-07-22T04:44:06;20.00;99.90
12720;DHT22;6424;48.520;11.228;2023-07-22T04:46:48;20.60;99.90
12720;DHT22;6424;48.520;11.228;2023-07-22T04:49:29;21.10;99.90
12720;DHT22;6424;48.520;11.228;2023-07-22T04:51:54;21.70;99.90
12720;DHT22;6424;48.520;11.228;2023-07-22T04:54:36;22.10;99.90
12720;DHT22;6424;48.520;11.228;2023-07-22T04:57:17;22.50;99.90
12720;DHT22;6424;48.520;11.228;2023-07-22T04:59:57;22.80;99.90
12720;DHT22;6424;48.520;11.228;2023-07-22T05:05:19;23.30;99.90
12720;DHT22;6424;48.520;11.228;2023-07-22T05:08:00;23.60;99.90
12720;DHT22;6424;48.520;11.228;2023-07-22T05:10:41;23.60;99.90
12720;DHT22;6424;48.520;11.228;2023-07-22T05:13:21;23.90;99.90
12720;DHT22;6424;48.520;11.228;2023-07-22T05:16:02;24.20;99.90
12720;DHT22;6424;48.520;11.228;2023-07-22T05:18:43;24.10;99.90
12720;DHT22;6424;48.520;11.228;2023-07-22T05:21:24;23.80;99.90
12720;DHT22;6424;48.520;11.228;2023-07-22T05:24:05;23.50;99.90
12720;DHT22;6424;48.520;11.228;2023-07-22T05:26:45;23.40;99.90
12720;DHT22;6424;48.520;11.228;2023-07-22T05:29:26;23.70;99.90
12720;DHT22;6424;48.520;11.228;2023-07-22T05:32:07;24.00;99.60
12720;DHT22;6424;48.520;11.228;2023-07-22T05:34:48;24.30;98.10
12720;DHT22;6424;48.520;11.228;2023-07-22T05:37:29;24.30;98.10
12720;DHT22;6424;48.520;11.228;2023-07-22T05:40:10;24.50;98.00
12720;DHT22;6424;48.520;11.228;2023-07-22T05:42:51;24.50;95.40
12720;DHT22;6424;48.520;11.228;2023-07-22T05:45:32;24.30;97.00
12720;DHT22;6424;48.520;11.228;2023-07-22T05:47:58;24.10;96.10
12720;DHT22;6424;48.520;11.228;2023-07-22T05:50:23;24.10;95.90
12720;DHT22;6424;48.520;11.228;2023-07-22T05:53:04;24.10;95.70
12720;DHT22;6424;48.520;11.228;2023-07-22T05:55:45;24.00;95.40
12720;DHT22;6424;48.520;11.228;2023-07-22T05:58:25;23.90;96.30
12720;DHT22;6424;48.520;11.228;2023-07-22T06:01:06;23.80;96.80
12720;DHT22;6424;48.520;11.228;2023-07-22T06:03:47;23.90;97.10
12720;DHT22;6424;48.520;11.228;2023-07-22T06:06:28;23.90;96.40
12720;DHT22;6424;48.520;11.228;2023-07-22T06:09:08;24.00;97.20
12720;DHT22;6424;48.520;11.228;2023-07-22T06:11:49;24.00;97.40
12720;DHT22;6424;48.520;11.228;2023-07-22T06:14:30;23.80;94.90
12720;DHT22;6424;48.520;11.228;2023-07-22T06:17:11;23.60;94.80
12720;DHT22;6424;48.520;11.228;2023-07-22T06:19:52;23.50;96.10
12720;DHT22;6424;48.520;11.228;2023-07-22T06:22:32;23.50;97.90
12720;DHT22;6424;48.520;11.228;2023-07-22T06:25:13;23.40;97.20
12720;DHT22;6424;48.520;11.228;2023-07-22T06:27:54;23.50;98.00
12720;DHT22;6424;48.520;11.228;2023-07-22T06:30:35;23.60;97.20
12720;DHT22;6424;48.520;11.228;2023-07-22T06:33:00;23.50;97.20
12720;DHT22;6424;48.520;11.228;2023-07-22T06:35:41;23.40;96.70
12720;DHT22;6424;48.520;11.228;2023-07-22T06:38:22;23.30;96.00
12720;DHT22;6424;48.520;11.228;2023-07-22T06:41:04;23.30;97.90
12720;DHT22;6424;48.520;11.228;2023-07-22T06:43:45;23.30;97.90
12720;DHT22;6424;48.520;11.228;2023-07-22T06:46:25;23.40;97.60
12720;DHT22;6424;48.520;11.228;2023-07-22T06:49:06;23.50;97.30
12720;DHT22;6424;48.520;11.228;2023-07-22T06:51:47;23.50;97.20
12720;DHT22;6424;48.520;11.228;2023-07-22T06:54:28;23.50;97.90
12720;DHT22;6424;48.520;11.228;2023-07-22T06:57:09;23.60;98.90
12720;DHT22;6424;48.520;11.228;2023-07-22T06:59:50;23.70;98.80
12720;DHT22;6424;48.520;11.228;2023-07-22T07:02:31;23.80;97.50
12720;DHT22;6424;48.520;11.228;2023-07-22T07:05:12;23.60;98.10
12720;DHT22;6424;48.520;11.228;2023-07-22T07:07:53;23.70;98.60
12720;DHT22;6424;48.520;11.228;2023-07-22T07:10:38;23.80;96.00
12720;DHT22;6424;48.520;11.228;2023-07-22T07:13:04;23.80;96.20
12720;DHT22;6424;48.520;11.228;2023-07-22T07:15:48;23.80;95.20
12720;DHT22;6424;48.520;11.228;2023-07-22T07:18:29;23.70;97.10
12720;DHT22;6424;48.520;11.228;2023-07-22T07:21:10;23.80;95.30
12720;DHT22;6424;48.520;11.228;2023-07-22T07:23:54;23.80;97.90
12720;DHT22;6424;48.520;11.228;2023-07-22T07:26:35;23.80;96.20
12720;DHT22;6424;48.520;11.228;2023-07-22T07:29:16;23.70;96.20
12720;DHT22;6424;48.520;11.228;2023-07-22T07:31:56;23.60;96.00
12720;DHT22;6424;48.520;11.228;2023-07-22T07:34:37;23.60;96.40
12720;DHT22;6424;48.520;11.228;2023-07-22T07:37:18;23.70;95.40
12720;DHT22;6424;48.520;11.228;2023-07-22T07:39:59;23.80;95.00
12720;DHT22;6424;48.520;11.228;2023-07-22T07:42:40;23.90;96.00
12720;DHT22;6424;48.520;11.228;2023-07-22T07:45:06;23.90;94.80
12720;DHT22;6424;48.520;11.228;2023-07-22T07:47:47;23.90;94.10
12720;DHT22;6424;48.520;11.228;2023-07-22T07:50:28;23.90;96.40
12720;DHT22;6424;48.520;11.228;2023-07-22T07:53:08;23.90;93.40
12720;DHT22;6424;48.520;11.228;2023-07-22T07:55:49;24.00;95.00
12720;DHT22;6424;48.520;11.228;2023-07-22T07:58:30;24.00;94.10
12720;DHT22;6424;48.520;11.228;2023-07-22T08:01:11;24.10;93.60
12720;DHT22;6424;48.520;11.228;2023-07-22T08:03:52;24.10;93.60
12720;DHT22;6424;48.520;11.228;2023-07-22T08:06:33;24.00;93.70
12720;DHT22;6424;48.520;11.228;2023-07-22T08:09:13;24.00;94.00
12720;DHT22;6424;48.520;11.228;2023-07-22T08:11:59;23.90;92.20
12720;DHT22;6424;48.520;11.228;2023-07-22T08:14:26;23.90;93.40
12720;DHT22;6424;48.520;11.228;2023-07-22T08:16:52;24.00;92.60
12720;DHT22;6424;48.520;11.228;2023-07-22T08:19:33;24.10;91.80
12720;DHT22;6424;48.520;11.228;2023-07-22T08:22:14;24.10;90.80
12720;DHT22;6424;48.520;11.228;2023-07-22T08:24:55;24.20;90.70
12720;DHT22;6424;48.520;11.228;2023-07-22T08:27:35;24.20;88.60
12720;DHT22;6424;48.520;11.228;2023-07-22T08:30:16;24.20;90.10
12720;DHT22;6424;48.520;11.228;2023-07-22T08:32:57;24.20;86.50
12720;DHT22;6424;48.520;11.228;2023-07-22T08:35:38;24.20;89.60
12720;DHT22;6424;48.520;11.228;2023-07-22T08:38:19;24.40;91.60
12720;DHT22;6424;48.520;11.228;2023-07-22T08:41:00;24.60;86.20
12720;DHT22;6424;48.520;11.228;2023-07-22T08:43:41;24.70;85.00
12720;DHT22;6424;48.520;11.228;2023-07-22T08:46:28;24.80;84.30
12720;DHT22;6424;48.520;11.228;2023-07-22T08:49:10;25.00;83.70
12720;DHT22;6424;48.520;11.228;2023-07-22T08:51:51;24.90;79.80
12720;DHT22;6424;48.520;11.228;2023-07-22T08:54:34;24.90;85.80
12720;DHT22;6424;48.520;11.228;2023-07-22T08:57:15;25.00;80.90
12720;DHT22;6424;48.520;11.228;2023-07-22T08:59:57;24.90;75.60
12720;DHT22;6424;48.520;11.228;2023-07-22T09:02:38;24.90;76.20
12720;DHT22;6424;48.520;11.228;2023-07-22T09:05:20;24.50;77.50
12720;DHT22;6424;48.520;11.228;2023-07-22T09:08:03;24.20;76.30
12720;DHT22;6424;48.520;11.228;2023-07-22T09:10:45;24.00;79.60
12720;DHT22;6424;48.520;11.228;2023-07-22T09:13:26;24.00;80.30
12720;DHT22;6424;48.520;11.228;2023-07-22T09:16:08;23.90;79.30
12720;DHT22;6424;48.520;11.228;2023-07-22T09:18:49;24.00;79.40
12720;DHT22;6424;48.520;11.228;2023-07-22T09:21:29;24.30;78.00
12720;DHT22;6424;48.520;11.228;2023-07-22T09:24:24;24.50;76.20
12720;DHT22;6424;48.520;11.228;2023-07-22T09:27:05;24.80;79.40
12720;DHT22;6424;48.520;11.228;2023-07-22T09:29:39;24.70;73.40
12720;DHT22;6424;48.520;11.228;2023-07-22T09:32:35;24.70;74.70
12720;DHT22;6424;48.520;11.228;2023-07-22T09:35:17;24.50;76.90
12720;DHT22;6424;48.520;11.228;2023-07-22T09:37:59;24.60;75.90
12720;DHT22;6424;48.520;11.228;2023-07-22T09:40:40;24.80;73.20
12720;DHT22;6424;48.520;11.228;2023-07-22T09:43:23;25.00;74.10
12720;DHT22;6424;48.520;11.228;2023-07-22T09:46:10;25.20;72.70
12720;DHT22;6424;48.520;11.228;2023-07-22T09:48:51;25.30;71.50
12720;DHT22;6424;48.520;11.228;2023-07-22T09:51:37;25.50;71.50
12720;DHT22;6424;48.520;11.228;2023-07-22T09:54:19;25.70;71.00
12720;DHT22;6424;48.520;11.228;2023-07-22T09:57:00;25.70;69.50
12720;DHT22;6424;48.520;11.228;2023-07-22T09:59:45;25.70;68.20
12720;DHT22;6424;48.520;11.228;2023-07-22T10:02:29;25.80;66.30
12720;DHT22;6424;48.520;11.228;2023-07-22T10:05:14;25.90;68.10
12720;DHT22;6424;48.520;11.228;2023-07-22T10:10:31;25.90;65.10
12720;DHT22;6424;48.520;11.228;2023-07-22T10:13:12;25.90;66.00
12720;DHT22;6424;48.520;11.228;2023-07-22T10:15:53;25.90;66.00
12720;DHT22;6424;48.520;11.228;2023-07-22T10:18:34;25.90;64.50
12720;DHT22;6424;48.520;11.228;2023-07-22T10:21:18;26.00;66.50
12720;DHT22;6424;48.520;11.228;2023-07-22T10:24:00;26.00;65.00
12720;DHT22;6424;48.520;11.228;2023-07-22T10:26:42;26.10;65.30
12720;DHT22;6424;48.520;11.228;2023-07-22T10:29:25;26.20;64.70
12720;DHT22;6424;48.520;11.228;2023-07-22T10:32:07;26.30;64.40
12720;DHT22;6424;48.520;11.228;2023-07-22T10:34:48;26.40;61.90
12720;DHT22;6424;48.520;11.228;2023-07-22T10:37:32;26.30;63.20
12720;DHT22;6424;48.520;11.228;2023-07-22T10:40:44;26.10;64.40
12720;DHT22;6424;48.520;11.228;2023-07-22T10:43:26;25.90;62.20
12720;DHT22;6424;48.520;11.228;2023-07-22T10:45:55;25.70;63.20
12720;DHT22;6424;48.520;11.228;2023-07-22T10:48:25;25.70;64.60
12720;DHT22;6424;48.520;11.228;2023-07-22T10:51:11;25.80;62.00
12720;DHT22;6424;48.520;11.228;2023-07-22T10:53:52;26.00;63.80
12720;DHT22;6424;48.520;11.228;2023-07-22T10:56:33;26.10;62.70
12720;DHT22;6424;48.520;11.228;2023-07-22T10:59:13;26.20;60.60
12720;DHT22;6424;48.520;11.228;2023-07-22T11:01:54;26.30;61.90
12720;DHT22;6424;48.520;11.228;2023-07-22T11:04:35;26.30;62.10
12720;DHT22;6424;48.520;11.228;2023-07-22T11:07:33;26.30;61.90
12720;DHT22;6424;48.520;11.228;2023-07-22T11:10:15;26.20;61.10
12720;DHT22;6424;48.520;11.228;2023-07-22T11:12:56;26.10;60.80
12720;DHT22;6424;48.520;11.228;2023-07-22T11:15:37;26.20;61.80
12720;DHT22;6424;48.520;11.228;2023-07-22T11:18:18;26.20;58.60
12720;DHT22;6424;48.520;11.228;2023-07-22T11:20:59;26.20;62.40
12720;DHT22;6424;48.520;11.228;2023-07-22T11:23:40;26.30;59.60
12720;DHT22;6424;48.520;11.228;2023-07-22T11:26:20;26.30;59.50
12720;DHT22;6424;48.520;11.228;2023-07-22T11:28:47;26.30;59.80
12720;DHT22;6424;48.520;11.228;2023-07-22T11:31:36;26.30;58.60
12720;DHT22;6424;48.520;11.228;2023-07-22T11:34:23;26.40;59.40
12720;DHT22;6424;48.520;11.228;2023-07-22T11:37:04;26.50;60.90
12720;DHT22;6424;48.520;11.228;2023-07-22T11:39:45;26.60;59.50
12720;DHT22;6424;48.520;11.228;2023-07-22T11:42:26;26.30;58.50
12720;DHT22;6424;48.520;11.228;2023-07-22T11:44:52;26.20;58.60
12720;DHT22;6424;48.520;11.228;2023-07-22T11:47:33;26.30;58.60
12720;DHT22;6424;48.520;11.228;2023-07-22T11:50:14;26.40;56.40
12720;DHT22;6424;48.520;11.228;2023-07-22T11:52:55;26.50;56.70
12720;DHT22;6424;48.520;11.228;2023-07-22T11:55:36;26.50;56.60
12720;DHT22;6424;48.520;11.228;2023-07-22T11:58:02;26.60;57.70
12720;DHT22;6424;48.520;11.228;2023-07-22T12:00:43;26.70;55.70
12720;DHT22;6424;48.520;11.228;2023-07-22T12:03:24;26.80;57.00
12720;DHT22;6424;48.520;11.228;2023-07-22T12:06:08;26.80;57.30
12720;DHT22;6424;48.520;11.228;2023-07-22T12:08:49;26.90;56.80
12720;DHT22;6424;48.520;11.228;2023-07-22T12:11:33;26.90;55.50
12720;DHT22;6424;48.520;11.228;2023-07-22T12:14:14;26.80;57.50
12720;DHT22;6424;48.520;11.228;2023-07-22T12:16:58;26.70;56.90
12720;DHT22;6424;48.520;11.228;2023-07-22T12:19:38;26.70;56.00
12720;DHT22;6424;48.520;11.228;2023-07-22T12:22:30;26.60;56.70
12720;DHT22;6424;48.520;11.228;2023-07-22T12:25:11;26.50;56.60
12720;DHT22;6424;48.520;11.228;2023-07-22T12:27:52;26.50;56.40
12720;DHT22;6424;48.520;11.228;2023-07-22T12:30:18;26.40;56.50
12720;DHT22;6424;48.520;11.228;2023-07-22T12:33:00;26.20;56.30
12720;DHT22;6424;48.520;11.228;2023-07-22T12:35:41;25.80;55.90
12720;DHT22;6424;48.520;11.228;2023-07-22T12:38:21;25.60;56.70
12720;DHT22;6424;48.520;11.228;2023-07-22T12:41:02;25.60;58.10
12720;DHT22;6424;48.520;11.228;2023-07-22T12:43:29;25.70;57.20
12720;DHT22;6424;48.520;11.228;2023-07-22T12:46:11;25.90;56.30
12720;DHT22;6424;48.520;11.228;2023-07-22T12:48:51;26.10;58.00
12720;DHT22;6424;48.520;11.228;2023-07-22T12:51:32;26.20;57.00
12720;DHT22;6424;48.520;11.228;2023-07-22T12:54:13;26.30;56.90
12720;DHT22;6424;48.520;11.228;2023-07-22T12:56:54;26.10;55.80
12720;DHT22;6424;48.520;11.228;2023-07-22T12:59:20;25.90;58.00
12720;DHT22;6424;48.520;11.228;2023-07-22T13:02:01;26.00;58.10
12720;DHT22;6424;48.520;11.228;2023-07-22T13:04:41;26.10;57.00
12720;DHT22;6424;48.520;11.228;2023-07-22T13:07:22;25.90;56.70
12720;DHT22;6424;48.520;11.228;2023-07-22T13:10:28;25.70;58.60
12720;DHT22;6424;48.520;11.228;2023-07-22T13:13:09;25.50;58.10
12720;DHT22;6424;48.520;11.228;2023-07-22T13:15:51;25.50;57.90
12720;DHT22;6424;48.520;11.228;2023-07-22T13:18:16;25.60;56.60
12720;DHT22;6424;48.520;11.228;2023-07-22T13:20:57;25.70;56.50
12720;DHT22;6424;48.520;11.228;2023-07-22T13:23:23;25.90;58.30
12720;DHT22;6424;48.520;11.228;2023-07-22T13:26:04;26.20;57.20
12720;DHT22;6424;48.520;11.228;2023-07-22T13:28:29;26.30;55.70
12720;DHT22;6424;48.520;11.228;2023-07-22T13:31:10;26.30;55.70
12720;DHT22;6424;48.520;11.228;2023-07-22T13:33:51;26.10;56.10
12720;DHT22;6424;48.520;11.228;2023-07-22T13:36:32;25.80;56.80
12720;DHT22;6424;48.520;11.228;2023-07-22T13:39:12;25.60;58.10
12720;DHT22;6424;48.520;11.228;2023-07-22T13:41:53;25.60;57.70
12720;DHT22;6424;48.520;11.228;2023-07-22T13:44:34;25.60;57.40
12720;DHT22;6424;48.520;11.228;2023-07-22T13:47:15;25.60;59.10
12720;DHT22;6424;48.520;11.228;2023-07-22T13:49:41;25.70;57.30
12720;DHT22;6424;48.520;11.228;2023-07-22T13:52:22;25.70;58.00
12720;DHT22;6424;48.520;11.228;2023-07-22T13:55:03;25.80;57.50
12720;DHT22;6424;48.520;11.228;2023-07-22T13:57:43;25.90;58.70
12720;DHT22;6424;48.520;11.228;2023-07-22T14:00:24;25.90;57.10
12720;DHT22;6424;48.520;11.228;2023-07-22T14:03:05;26.00;57.40
12720;DHT22;6424;48.520;11.228;2023-07-22T14:05:46;26.10;57.80
12720;DHT22;6424;48.520;11.228;2023-07-22T14:08:27;26.20;57.40
12720;DHT22;6424;48.520;11.228;2023-07-22T14:11:08;26.20;57.20
12720;DHT22;6424;48.520;11.228;2023-07-22T14:13:49;26.30;57.70
12720;DHT22;6424;48.520;11.228;2023-07-22T14:16:32;26.40;56.50
12720;DHT22;6424;48.520;11.228;2023-07-22T14:19:14;26.20;57.40
12720;DHT22;6424;48.520;11.228;2023-07-22T14:21:54;26.30;56.40
12720;DHT22;6424;48.520;11.228;2023-07-22T14:24:35;26.20;56.10
12720;DHT22;6424;48.520;11.228;2023-07-22T14:27:16;26.30;57.70
12720;DHT22;6424;48.520;11.228;2023-07-22T14:29:57;26.40;57.10
12720;DHT22;6424;48.520;11.228;2023-07-22T14:32:37;26.30;57.50
12720;DHT22;6424;48.520;11.228;2023-07-22T14:35:18;26.30;57.50
12720;DHT22;6424;48.520;11.228;2023-07-22T14:37:59;26.50;56.70
12720;DHT22;6424;48.520;11.228;2023-07-22T14:40:40;26.70;56.30
12720;DHT22;6424;48.520;11.228;2023-07-22T14:43:21;26.80;56.50
12720;DHT22;6424;48.520;11.228;2023-07-22T14:46:01;26.90;55.90
12720;DHT22;6424;48.520;11.228;2023-07-22T14:48:42;26.70;56.30
12720;DHT22;6424;48.520;11.228;2023-07-22T14:51:23;26.70;55.70
12720;DHT22;6424;48.520;11.228;2023-07-22T14:54:04;26.60;56.20
12720;DHT22;6424;48.520;11.228;2023-07-22T14:56:44;26.30;56.10
12720;DHT22;6424;48.520;11.228;2023-07-22T14:59:25;26.20;55.70
12720;DHT22;6424;48.520;11.228;2023-07-22T15:02:09;26.30;56.40
12720;DHT22;6424;48.520;11.228;2023-07-22T15:04:51;26.30;57.10
12720;DHT22;6424;48.520;11.228;2023-07-22T15:07:31;26.50;57.70
12720;DHT22;6424;48.520;11.228;2023-07-22T15:10:12;26.60;55.40
12720;DHT22;6424;48.520;11.228;2023-07-22T15:12:53;26.40;56.60
12720;DHT22;6424;48.520;11.228;2023-07-22T15:15:34;26.10;56.80
12720;DHT22;6424;48.520;11.228;2023-07-22T15:18:15;25.90;57.10
12720;DHT22;6424;48.520;11.228;2023-07-22T15:20:55;25.90;57.40
12720;DHT22;6424;48.520;11.228;2023-07-22T15:23:36;25.90;58.00
12720;DHT22;6424;48.520;11.228;2023-07-22T15:26:17;25.90;58.60
12720;DHT22;6424;48.520;11.228;2023-07-22T15:28:58;26.00;59.10
12720;DHT22;6424;48.520;11.228;2023-07-22T15:31:38;26.00;57.60
12720;DHT22;6424;48.520;11.228;2023-07-22T15:34:19;25.80;57.70
12720;DHT22;6424;48.520;11.228;2023-07-22T15:36:45;25.50;58.00
12720;DHT22;6424;48.520;11.228;2023-07-22T15:39:26;25.40;58.80
12720;DHT22;6424;48.520;11.228;2023-07-22T15:42:07;25.40;58.50
12720;DHT22;6424;48.520;11.228;2023-07-22T15:44:47;25.60;59.60
12720;DHT22;6424;48.520;11.228;2023-07-22T15:47:28;25.80;59.20
12720;DHT22;6424;48.520;11.228;2023-07-22T15:50:09;25.90;57.80
12720;DHT22;6424;48.520;11.228;2023-07-22T15:52:50;26.00;57.70
12720;DHT22;6424;48.520;11.228;2023-07-22T15:55:31;26.10;59.50
12720;DHT22;6424;48.520;11.228;2023-07-22T15:57:56;25.90;57.50
12720;DHT22;6424;48.520;11.228;2023-07-22T16:00:37;25.80;56.70
12720;DHT22;6424;48.520;11.228;2023-07-22T16:03:18;25.60;57.90
12720;DHT22;6424;48.520;11.228;2023-07-22T16:05:59;25.60;57.90
12720;DHT22;6424;48.520;11.228;2023-07-22T16:08:40;25.50;58.20
12720;DHT22;6424;48.520;11.228;2023-07-22T16:11:20;25.50;57.90
12720;DHT22;6424;48.520;11.228;2023-07-22T16:14:01;25.30;58.90
12720;DHT22;6424;48.520;11.228;2023-07-22T16:16:44;25.30;58.90
12720;DHT22;6424;48.520;11.228;2023-07-22T16:19:24;25.10;58.60
12720;DHT22;6424;48.520;11.228;2023-07-22T16:22:05;25.00;58.00
12720;DHT22;6424;48.520;11.228;2023-07-22T16:24:33;24.90;59.40
12720;DHT22;6424;48.520;11.228;2023-07-22T16:27:14;24.80;59.50
12720;DHT22;6424;48.520;11.228;2023-07-22T16:29:54;24.70;60.20
12720;DHT22;6424;48.520;11.228;2023-07-22T16:32:37;24.60;60.00
12720;DHT22;6424;48.520;11.228;2023-07-22T16:35:17;24.60;60.80
12720;DHT22;6424;48.520;11.228;2023-07-22T16:37:58;24.70;61.40
12720;DHT22;6424;48.520;11.228;2023-07-22T16:40:40;24.80;60.00
12720;DHT22;6424;48.520;11.228;2023-07-22T16:43:21;24.90;60.20
12720;DHT22;6424;48.520;11.228;2023-07-22T16:46:02;25.00;60.30
12720;DHT22;6424;48.520;11.228;2023-07-22T16:48:43;25.00;60.10
12720;DHT22;6424;48.520;11.228;2023-07-22T16:51:23;25.00;59.70
12720;DHT22;6424;48.520;11.228;2023-07-22T16:54:04;24.90;61.00
12720;DHT22;6424;48.520;11.228;2023-07-22T16:56:45;24.80;61.90
12720;DHT22;6424;48.520;11.228;2023-07-22T16:59:26;24.70;61.70
12720;DHT22;6424;48.520;11.228;2023-07-22T17:02:07;24.50;61.70